sensor_id;sensor_type;location;lat;lon;timestamp;P1;durP1;ratioP1;P2;durP2;ratioP2
31464;SDS011;18089;47.428;15.006;2023-04-01T00:00:34;16.20;;;14.50;;
31464;SDS011;18089;47.428;15.006;2023-04-01T00:03:06;17.02;;;15.25;;
31464;SDS011;18089;47.428;15.006;2023-04-01T00:05:38;22.30;;;17.00;;
31464;SDS011;18089;47.428;15.006;2023-04-01T00:08:11;17.85;;;16.00;;
31464;SDS011;18089;47.428;15.006;2023-04-01T00:10:44;16.98;;;15.18;;
31464;SDS011;18089;47.428;15.006;2023-04-01T00:13:16;17.45;;;15.75;;
31464;SDS011;18089;47.428;15.006;2023-04-01T00:15:48;15.82;;;14.30;;
31464;SDS011;18089;47.428;15.006;2023-04-01T00:18:20;23.05;;;17.23;;
31464;SDS011;18089;47.428;15.006;2023-04-01T00:20:53;21.17;;;16.58;;
31464;SDS011;18089;47.428;15.006;2023-04-01T00:23:25;18.38;;;16.48;;
31464;SDS011;18089;47.428;15.006;2023-04-01T00:26:00;17.50;;;15.70;;
31464;SDS011;18089;47.428;15.006;2023-04-01T00:28:33;19.33;;;16.27;;
31464;SDS011;18089;47.428;15.006;2023-04-01T00:31:06;17.05;;;15.38;;
31464;SDS011;18089;47.428;15.006;2023-04-01T00:33:39;18.63;;;16.05;;
31464;SDS011;18089;47.428;15.006;2023-04-01T00:36:12;17.70;;;15.93;;
31464;SDS011;18089;47.428;15.006;2023-04-01T00:38:45;17.80;;;16.00;;
31464;SDS011;18089;47.428;15.006;2023-04-01T00:41:19;18.00;;;16.05;;
31464;SDS011;18089;47.428;15.006;2023-04-01T00:43:51;18.98;;;16.42;;
31464;SDS011;18089;47.428;15.006;2023-04-01T00:46:24;18.40;;;16.50;;
31464;SDS011;18089;47.428;15.006;2023-04-01T00:48:56;17.52;;;15.88;;
31464;SDS011;18089;47.428;15.006;2023-04-01T00:51:28;19.20;;;17.23;;
31464;SDS011;18089;47.428;15.006;2023-04-01T00:54:00;22.77;;;17.52;;
31464;SDS011;18089;47.428;15.006;2023-04-01T00:56:35;19.67;;;16.63;;
31464;SDS011;18089;47.428;15.006;2023-04-01T00:59:11;20.08;;;17.95;;
31464;SDS011;18089;47.428;15.006;2023-04-01T01:01:46;20.23;;;17.67;;
31464;SDS011;18089;47.428;15.006;2023-04-01T01:04:21;19.23;;;16.25;;
31464;SDS011;18089;47.428;15.006;2023-04-01T01:07:00;18.80;;;16.83;;
31464;SDS011;18089;47.428;15.006;2023-04-01T01:09:40;18.75;;;16.83;;
31464;SDS011;18089;47.428;15.006;2023-04-01T01:12:18;19.95;;;16.95;;
31464;SDS011;18089;47.428;15.006;2023-04-01T01:14:53;19.20;;;17.30;;
31464;SDS011;18089;47.428;15.006;2023-04-01T01:17:32;17.73;;;15.93;;
31464;SDS011;18089;47.428;15.006;2023-04-01T01:26:33;20.63;;;17.55;;
31464;SDS011;18089;47.428;15.006;2023-04-01T01:29:15;18.20;;;16.40;;
31464;SDS011;18089;47.428;15.006;2023-04-01T01:32:00;17.58;;;15.77;;
31464;SDS011;18089;47.428;15.006;2023-04-01T01:34:35;17.25;;;15.45;;
31464;SDS011;18089;47.428;15.006;2023-04-01T01:37:12;18.83;;;16.87;;
31464;SDS011;18089;47.428;15.006;2023-04-01T01:39:52;18.37;;;16.50;;
31464;SDS011;18089;47.428;15.006;2023-04-01T01:42:26;17.60;;;15.73;;
31464;SDS011;18089;47.428;15.006;2023-04-01T01:44:58;20.08;;;16.83;;
31464;SDS011;18089;47.428;15.006;2023-04-01T01:47:32;17.85;;;15.90;;
31464;SDS011;18089;47.428;15.006;2023-04-01T01:50:06;17.92;;;16.15;;
31464;SDS011;18089;47.428;15.006;2023-04-01T01:52:40;17.47;;;15.70;;
31464;SDS011;18089;47.428;15.006;2023-04-01T01:55:23;17.45;;;15.48;;
31464;SDS011;18089;47.428;15.006;2023-04-01T01:57:57;18.03;;;16.30;;
31464;SDS011;18089;47.428;15.006;2023-04-01T02:00:32;17.42;;;15.73;;
31464;SDS011;18089;47.428;15.006;2023-04-01T02:03:05;19.77;;;15.80;;
31464;SDS011;18089;47.428;15.006;2023-04-01T02:05:37;17.23;;;15.33;;
31464;SDS011;18089;47.428;15.006;2023-04-01T02:08:12;16.25;;;14.68;;
31464;SDS011;18089;47.428;15.006;2023-04-01T02:10:46;17.65;;;14.90;;
31464;SDS011;18089;47.428;15.006;2023-04-01T02:13:21;16.80;;;15.15;;
31464;SDS011;18089;47.428;15.006;2023-04-01T02:15:59;16.33;;;14.82;;
31464;SDS011;18089;47.428;15.006;2023-04-01T02:18:35;17.10;;;15.30;;
31464;SDS011;18089;47.428;15.006;2023-04-01T02:21:08;16.40;;;14.80;;
31464;SDS011;18089;47.428;15.006;2023-04-01T02:23:42;16.50;;;14.80;;
31464;SDS011;18089;47.428;15.006;2023-04-01T02:26:14;16.45;;;14.75;;
31464;SDS011;18089;47.428;15.006;2023-04-01T02:28:46;16.20;;;14.77;;
31464;SDS011;18089;47.428;15.006;2023-04-01T02:31:19;17.55;;;15.75;;
31464;SDS011;18089;47.428;15.006;2023-04-01T02:33:52;17.73;;;16.03;;
31464;SDS011;18089;47.428;15.006;2023-04-01T02:36:25;18.20;;;16.17;;
31464;SDS011;18089;47.428;15.006;2023-04-01T02:38:58;18.88;;;16.88;;
31464;SDS011;18089;47.428;15.006;2023-04-01T02:41:38;18.33;;;16.48;;
31464;SDS011;18089;47.428;15.006;2023-04-01T02:44:11;18.50;;;16.70;;
31464;SDS011;18089;47.428;15.006;2023-04-01T02:46:44;18.90;;;17.00;;
31464;SDS011;18089;47.428;15.006;2023-04-01T02:49:16;17.50;;;15.77;;
31464;SDS011;18089;47.428;15.006;2023-04-01T02:51:48;17.60;;;15.52;;
31464;SDS011;18089;47.428;15.006;2023-04-01T02:54:23;17.20;;;15.55;;
31464;SDS011;18089;47.428;15.006;2023-04-01T02:56:55;17.10;;;15.40;;
31464;SDS011;18089;47.428;15.006;2023-04-01T02:59:27;17.63;;;15.70;;
31464;SDS011;18089;47.428;15.006;2023-04-01T03:01:59;17.83;;;16.02;;
31464;SDS011;18089;47.428;15.006;2023-04-01T03:04:31;17.95;;;16.08;;
31464;SDS011;18089;47.428;15.006;2023-04-01T03:07:03;16.98;;;15.27;;
31464;SDS011;18089;47.428;15.006;2023-04-01T03:09:37;17.85;;;16.02;;
31464;SDS011;18089;47.428;15.006;2023-04-01T03:12:09;17.83;;;15.95;;
31464;SDS011;18089;47.428;15.006;2023-04-01T03:14:41;17.48;;;15.35;;
31464;SDS011;18089;47.428;15.006;2023-04-01T03:17:13;16.55;;;14.77;;
31464;SDS011;18089;47.428;15.006;2023-04-01T03:19:46;17.42;;;15.63;;
31464;SDS011;18089;47.428;15.006;2023-04-01T03:22:18;16.85;;;15.05;;
31464;SDS011;18089;47.428;15.006;2023-04-01T03:24:52;18.23;;;16.42;;
31464;SDS011;18089;47.428;15.006;2023-04-01T03:27:24;17.50;;;15.80;;
31464;SDS011;18089;47.428;15.006;2023-04-01T03:29:56;17.35;;;15.65;;
31464;SDS011;18089;47.428;15.006;2023-04-01T03:32:28;16.58;;;14.85;;
31464;SDS011;18089;47.428;15.006;2023-04-01T03:35:00;17.27;;;15.65;;
31464;SDS011;18089;47.428;15.006;2023-04-01T03:37:32;17.60;;;15.10;;
31464;SDS011;18089;47.428;15.006;2023-04-01T03:40:06;15.65;;;14.20;;
31464;SDS011;18089;47.428;15.006;2023-04-01T03:42:39;18.17;;;16.47;;
31464;SDS011;18089;47.428;15.006;2023-04-01T03:45:11;16.57;;;14.73;;
31464;SDS011;18089;47.428;15.006;2023-04-01T03:47:43;16.10;;;14.45;;
31464;SDS011;18089;47.428;15.006;2023-04-01T03:50:15;16.10;;;14.45;;
31464;SDS011;18089;47.428;15.006;2023-04-01T03:52:48;15.90;;;14.07;;
31464;SDS011;18089;47.428;15.006;2023-04-01T03:55:21;16.13;;;14.73;;
31464;SDS011;18089;47.428;15.006;2023-04-01T03:57:53;18.13;;;14.90;;
31464;SDS011;18089;47.428;15.006;2023-04-01T04:00:25;16.13;;;14.38;;
31464;SDS011;18089;47.428;15.006;2023-04-01T04:02:57;15.20;;;13.80;;
31464;SDS011;18089;47.428;15.006;2023-04-01T04:05:30;15.73;;;14.23;;
31464;SDS011;18089;47.428;15.006;2023-04-01T04:08:02;15.93;;;14.00;;
31464;SDS011;18089;47.428;15.006;2023-04-01T04:10:36;16.23;;;14.73;;
31464;SDS011;18089;47.428;15.006;2023-04-01T04:13:08;17.50;;;14.52;;
31464;SDS011;18089;47.428;15.006;2023-04-01T04:15:40;15.70;;;14.30;;
31464;SDS011;18089;47.428;15.006;2023-04-01T04:18:12;14.73;;;13.32;;
31464;SDS011;18089;47.428;15.006;2023-04-01T04:20:44;15.10;;;13.35;;
31464;SDS011;18089;47.428;15.006;2023-04-01T04:23:18;15.23;;;13.68;;
31464;SDS011;18089;47.428;15.006;2023-04-01T04:25:55;15.40;;;14.00;;
31464;SDS011;18089;47.428;15.006;2023-04-01T04:28:28;15.35;;;14.00;;
31464;SDS011;18089;47.428;15.006;2023-04-01T04:31:00;16.27;;;14.35;;
31464;SDS011;18089;47.428;15.006;2023-04-01T04:33:34;15.48;;;14.10;;
31464;SDS011;18089;47.428;15.006;2023-04-01T04:36:07;16.38;;;14.10;;
31464;SDS011;18089;47.428;15.006;2023-04-01T04:38:39;15.55;;;14.00;;
31464;SDS011;18089;47.428;15.006;2023-04-01T04:41:13;16.10;;;14.43;;
31464;SDS011;18089;47.428;15.006;2023-04-01T04:43:51;16.20;;;14.60;;
31464;SDS011;18089;47.428;15.006;2023-04-01T04:46:23;15.27;;;13.70;;
31464;SDS011;18089;47.428;15.006;2023-04-01T04:48:55;16.83;;;15.23;;
31464;SDS011;18089;47.428;15.006;2023-04-01T04:51:28;18.08;;;14.20;;
31464;SDS011;18089;47.428;15.006;2023-04-01T04:54:00;16.45;;;14.70;;
31464;SDS011;18089;47.428;15.006;2023-04-01T04:56:33;15.70;;;14.07;;
31464;SDS011;18089;47.428;15.006;2023-04-01T04:59:05;15.98;;;14.27;;
31464;SDS011;18089;47.428;15.006;2023-04-01T05:01:37;15.20;;;13.68;;
31464;SDS011;18089;47.428;15.006;2023-04-01T05:04:10;15.38;;;13.93;;
31464;SDS011;18089;47.428;15.006;2023-04-01T05:06:42;15.80;;;14.00;;
31464;SDS011;18089;47.428;15.006;2023-04-01T05:09:14;15.10;;;13.63;;
31464;SDS011;18089;47.428;15.006;2023-04-01T05:11:48;10.48;;;9.57;;
31464;SDS011;18089;47.428;15.006;2023-04-01T05:14:20;10.60;;;9.80;;
31464;SDS011;18089;47.428;15.006;2023-04-01T05:16:52;11.48;;;10.50;;
31464;SDS011;18089;47.428;15.006;2023-04-01T05:19:24;14.10;;;12.70;;
31464;SDS011;18089;47.428;15.006;2023-04-01T05:21:56;15.45;;;13.98;;
31464;SDS011;18089;47.428;15.006;2023-04-01T05:24:28;15.55;;;13.95;;
31464;SDS011;18089;47.428;15.006;2023-04-01T05:27:02;15.38;;;13.85;;
31464;SDS011;18089;47.428;15.006;2023-04-01T05:29:34;16.40;;;14.63;;
31464;SDS011;18089;47.428;15.006;2023-04-01T05:32:06;17.08;;;14.45;;
31464;SDS011;18089;47.428;15.006;2023-04-01T05:34:38;15.55;;;14.02;;
31464;SDS011;18089;47.428;15.006;2023-04-01T05:37:10;13.82;;;12.63;;
31464;SDS011;18089;47.428;15.006;2023-04-01T05:39:43;12.32;;;11.23;;
31464;SDS011;18089;47.428;15.006;2023-04-01T05:42:16;13.93;;;12.65;;
31464;SDS011;18089;47.428;15.006;2023-04-01T05:44:48;13.57;;;12.27;;
31464;SDS011;18089;47.428;15.006;2023-04-01T05:47:20;12.75;;;11.70;;
31464;SDS011;18089;47.428;15.006;2023-04-01T05:49:52;11.75;;;10.65;;
31464;SDS011;18089;47.428;15.006;2023-04-01T05:52:25;11.13;;;10.02;;
31464;SDS011;18089;47.428;15.006;2023-04-01T05:54:57;9.63;;;8.82;;
31464;SDS011;18089;47.428;15.006;2023-04-01T05:57:31;10.35;;;9.55;;
31464;SDS011;18089;47.428;15.006;2023-04-01T06:00:04;8.10;;;7.60;;
31464;SDS011;18089;47.428;15.006;2023-04-01T06:02:37;8.10;;;7.50;;
31464;SDS011;18089;47.428;15.006;2023-04-01T06:05:11;6.90;;;6.50;;
31464;SDS011;18089;47.428;15.006;2023-04-01T06:07:46;7.90;;;7.35;;
31464;SDS011;18089;47.428;15.006;2023-04-01T06:10:19;7.68;;;7.18;;
31464;SDS011;18089;47.428;15.006;2023-04-01T06:12:57;7.38;;;6.90;;
31464;SDS011;18089;47.428;15.006;2023-04-01T06:15:36;7.50;;;7.00;;
31464;SDS011;18089;47.428;15.006;2023-04-01T06:18:16;7.50;;;7.10;;
31464;SDS011;18089;47.428;15.006;2023-04-01T06:20:57;7.65;;;7.25;;
31464;SDS011;18089;47.428;15.006;2023-04-01T06:23:37;7.72;;;7.22;;
31464;SDS011;18089;47.428;15.006;2023-04-01T06:26:18;7.25;;;6.75;;
31464;SDS011;18089;47.428;15.006;2023-04-01T06:29:02;8.10;;;7.50;;
31464;SDS011;18089;47.428;15.006;2023-04-01T06:32:00;10.02;;;9.23;;
31464;SDS011;18089;47.428;15.006;2023-04-01T06:34:56;7.65;;;7.22;;
31464;SDS011;18089;47.428;15.006;2023-04-01T06:37:39;6.95;;;6.45;;
31464;SDS011;18089;47.428;15.006;2023-04-01T06:43:33;6.85;;;6.40;;
31464;SDS011;18089;47.428;15.006;2023-04-01T06:46:13;6.63;;;6.13;;
31464;SDS011;18089;47.428;15.006;2023-04-01T06:48:55;6.53;;;6.13;;
31464;SDS011;18089;47.428;15.006;2023-04-01T06:51:46;7.10;;;6.60;;
31464;SDS011;18089;47.428;15.006;2023-04-01T06:54:24;6.68;;;6.28;;
31464;SDS011;18089;47.428;15.006;2023-04-01T06:57:01;7.05;;;6.55;;
31464;SDS011;18089;47.428;15.006;2023-04-01T06:59:35;6.93;;;6.53;;
31464;SDS011;18089;47.428;15.006;2023-04-01T07:02:15;7.10;;;6.70;;
31464;SDS011;18089;47.428;15.006;2023-04-01T07:04:53;7.65;;;7.15;;
31464;SDS011;18089;47.428;15.006;2023-04-01T07:07:29;7.00;;;6.50;;
31464;SDS011;18089;47.428;15.006;2023-04-01T07:10:06;6.70;;;6.30;;
31464;SDS011;18089;47.428;15.006;2023-04-01T07:12:44;6.32;;;6.03;;
31464;SDS011;18089;47.428;15.006;2023-04-01T07:15:19;6.53;;;6.10;;
31464;SDS011;18089;47.428;15.006;2023-04-01T07:17:55;9.00;;;8.20;;
31464;SDS011;18089;47.428;15.006;2023-04-01T07:20:29;9.18;;;5.88;;
31464;SDS011;18089;47.428;15.006;2023-04-01T07:23:04;5.72;;;5.50;;
31464;SDS011;18089;47.428;15.006;2023-04-01T07:25:38;5.70;;;5.30;;
31464;SDS011;18089;47.428;15.006;2023-04-01T07:28:13;5.38;;;5.18;;
31464;SDS011;18089;47.428;15.006;2023-04-01T07:30:49;5.10;;;4.90;;
31464;SDS011;18089;47.428;15.006;2023-04-01T07:33:33;5.50;;;5.20;;
31464;SDS011;18089;47.428;15.006;2023-04-01T07:36:08;19.25;;;5.05;;
31464;SDS011;18089;47.428;15.006;2023-04-01T07:38:47;6.47;;;5.97;;
31464;SDS011;18089;47.428;15.006;2023-04-01T07:41:26;4.90;;;4.70;;
31464;SDS011;18089;47.428;15.006;2023-04-01T07:44:06;4.63;;;4.43;;
31464;SDS011;18089;47.428;15.006;2023-04-01T07:49:43;5.40;;;5.00;;
31464;SDS011;18089;47.428;15.006;2023-04-01T07:52:23;5.40;;;5.00;;
31464;SDS011;18089;47.428;15.006;2023-04-01T07:55:02;5.10;;;4.80;;
31464;SDS011;18089;47.428;15.006;2023-04-01T07:57:38;96.90;;;8.25;;
31464;SDS011;18089;47.428;15.006;2023-04-01T08:00:16;11.10;;;9.95;;
31464;SDS011;18089;47.428;15.006;2023-04-01T08:02:54;7.03;;;6.53;;
31464;SDS011;18089;47.428;15.006;2023-04-01T08:05:39;5.80;;;5.40;;
31464;SDS011;18089;47.428;15.006;2023-04-01T08:08:17;5.65;;;5.25;;
31464;SDS011;18089;47.428;15.006;2023-04-01T08:10:54;4.55;;;4.35;;
31464;SDS011;18089;47.428;15.006;2023-04-01T08:13:30;4.57;;;4.38;;
31464;SDS011;18089;47.428;15.006;2023-04-01T08:16:08;4.75;;;4.45;;
31464;SDS011;18089;47.428;15.006;2023-04-01T08:18:46;5.15;;;4.72;;
31464;SDS011;18089;47.428;15.006;2023-04-01T08:21:27;4.90;;;4.70;;
31464;SDS011;18089;47.428;15.006;2023-04-01T08:24:02;5.15;;;4.85;;
31464;SDS011;18089;47.428;15.006;2023-04-01T08:26:40;9.45;;;8.57;;
31464;SDS011;18089;47.428;15.006;2023-04-01T08:29:16;5.13;;;4.90;;
31464;SDS011;18089;47.428;15.006;2023-04-01T08:31:51;5.20;;;4.95;;
31464;SDS011;18089;47.428;15.006;2023-04-01T08:34:28;4.80;;;4.50;;
31464;SDS011;18089;47.428;15.006;2023-04-01T08:37:05;23.42;;;6.22;;
31464;SDS011;18089;47.428;15.006;2023-04-01T08:39:39;5.50;;;5.20;;
31464;SDS011;18089;47.428;15.006;2023-04-01T08:42:28;20.17;;;13.70;;
31464;SDS011;18089;47.428;15.006;2023-04-01T08:45:15;4.60;;;4.40;;
31464;SDS011;18089;47.428;15.006;2023-04-01T08:48:01;4.55;;;4.35;;
31464;SDS011;18089;47.428;15.006;2023-04-01T08:53:54;5.25;;;4.95;;
31464;SDS011;18089;47.428;15.006;2023-04-01T08:56:34;5.25;;;4.95;;
31464;SDS011;18089;47.428;15.006;2023-04-01T08:59:13;7.80;;;7.10;;
31464;SDS011;18089;47.428;15.006;2023-04-01T09:02:02;10.13;;;8.63;;
31464;SDS011;18089;47.428;15.006;2023-04-01T09:04:58;6.63;;;6.13;;
31464;SDS011;18089;47.428;15.006;2023-04-01T09:07:55;16.77;;;11.75;;
31464;SDS011;18089;47.428;15.006;2023-04-01T09:10:37;5.85;;;5.45;;
31464;SDS011;18089;47.428;15.006;2023-04-01T09:13:25;6.10;;;5.80;;
31464;SDS011;18089;47.428;15.006;2023-04-01T09:16:34;5.63;;;5.32;;
31464;SDS011;18089;47.428;15.006;2023-04-01T09:19:28;5.13;;;4.93;;
31464;SDS011;18089;47.428;15.006;2023-04-01T09:22:18;4.80;;;4.60;;
31464;SDS011;18089;47.428;15.006;2023-04-01T09:25:01;5.25;;;5.05;;
31464;SDS011;18089;47.428;15.006;2023-04-01T09:28:05;8.70;;;7.90;;
31464;SDS011;18089;47.428;15.006;2023-04-01T09:33:59;5.97;;;5.68;;
31464;SDS011;18089;47.428;15.006;2023-04-01T09:36:45;7.50;;;7.00;;
31464;SDS011;18089;47.428;15.006;2023-04-01T09:42:15;7.25;;;6.70;;
31464;SDS011;18089;47.428;15.006;2023-04-01T09:45:14;5.10;;;4.80;;
31464;SDS011;18089;47.428;15.006;2023-04-01T09:47:58;8.63;;;7.90;;
31464;SDS011;18089;47.428;15.006;2023-04-01T09:50:42;9.25;;;8.18;;
31464;SDS011;18089;47.428;15.006;2023-04-01T09:53:26;5.60;;;5.30;;
31464;SDS011;18089;47.428;15.006;2023-04-01T09:56:17;5.03;;;4.82;;
31464;SDS011;18089;47.428;15.006;2023-04-01T10:08:33;5.28;;;4.93;;
31464;SDS011;18089;47.428;15.006;2023-04-01T10:17:48;4.05;;;3.95;;
31464;SDS011;18089;47.428;15.006;2023-04-01T10:20:34;4.72;;;4.30;;
31464;SDS011;18089;47.428;15.006;2023-04-01T10:26:53;4.70;;;4.50;;
31464;SDS011;18089;47.428;15.006;2023-04-01T10:29:48;7.65;;;6.55;;
31464;SDS011;18089;47.428;15.006;2023-04-01T10:42:33;3.80;;;3.70;;
31464;SDS011;18089;47.428;15.006;2023-04-01T10:45:38;3.50;;;3.40;;
31464;SDS011;18089;47.428;15.006;2023-04-01T10:54:50;4.03;;;3.92;;
31464;SDS011;18089;47.428;15.006;2023-04-01T10:57:40;5.40;;;4.05;;
31464;SDS011;18089;47.428;15.006;2023-04-01T11:00:48;4.75;;;4.45;;
31464;SDS011;18089;47.428;15.006;2023-04-01T11:19:14;4.50;;;4.20;;
31464;SDS011;18089;47.428;15.006;2023-04-01T11:21:59;5.50;;;5.10;;
31464;SDS011;18089;47.428;15.006;2023-04-01T11:27:54;4.28;;;4.07;;
31464;SDS011;18089;47.428;15.006;2023-04-01T11:30:53;4.38;;;4.10;;
31464;SDS011;18089;47.428;15.006;2023-04-01T11:33:34;4.20;;;3.92;;
31464;SDS011;18089;47.428;15.006;2023-04-01T11:39:05;9.40;;;7.38;;
31464;SDS011;18089;47.428;15.006;2023-04-01T11:41:45;10.18;;;8.15;;
31464;SDS011;18089;47.428;15.006;2023-04-01T11:44:22;5.15;;;4.57;;
31464;SDS011;18089;47.428;15.006;2023-04-01T11:47:03;4.88;;;4.47;;
31464;SDS011;18089;47.428;15.006;2023-04-01T11:49:56;4.20;;;3.90;;
31464;SDS011;18089;47.428;15.006;2023-04-01T11:52:52;4.97;;;4.57;;
31464;SDS011;18089;47.428;15.006;2023-04-01T11:55:58;4.15;;;3.95;;
31464;SDS011;18089;47.428;15.006;2023-04-01T12:01:48;4.20;;;4.00;;
31464;SDS011;18089;47.428;15.006;2023-04-01T12:07:40;4.30;;;4.00;;
31464;SDS011;18089;47.428;15.006;2023-04-01T12:10:28;4.15;;;3.90;;
31464;SDS011;18089;47.428;15.006;2023-04-01T12:13:09;4.07;;;3.80;;
31464;SDS011;18089;47.428;15.006;2023-04-01T12:15:53;3.88;;;3.60;;
31464;SDS011;18089;47.428;15.006;2023-04-01T12:18:33;3.60;;;3.40;;
31464;SDS011;18089;47.428;15.006;2023-04-01T12:21:13;4.30;;;3.85;;
31464;SDS011;18089;47.428;15.006;2023-04-01T12:27:06;7.85;;;5.25;;
31464;SDS011;18089;47.428;15.006;2023-04-01T12:29:58;8.18;;;4.82;;
31464;SDS011;18089;47.428;15.006;2023-04-01T12:32:53;6.35;;;4.20;;
31464;SDS011;18089;47.428;15.006;2023-04-01T12:35:35;4.65;;;3.50;;
31464;SDS011;18089;47.428;15.006;2023-04-01T12:38:17;4.88;;;3.83;;
31464;SDS011;18089;47.428;15.006;2023-04-01T12:41:07;5.00;;;4.15;;
31464;SDS011;18089;47.428;15.006;2023-04-01T12:44:03;4.35;;;4.05;;
31464;SDS011;18089;47.428;15.006;2023-04-01T12:46:55;4.35;;;3.42;;
31464;SDS011;18089;47.428;15.006;2023-04-01T12:49:53;3.13;;;2.92;;
31464;SDS011;18089;47.428;15.006;2023-04-01T12:52:31;3.17;;;3.00;;
31464;SDS011;18089;47.428;15.006;2023-04-01T12:55:25;5.90;;;5.30;;
31464;SDS011;18089;47.428;15.006;2023-04-01T13:01:07;2.95;;;2.75;;
31464;SDS011;18089;47.428;15.006;2023-04-01T13:03:56;3.33;;;3.03;;
31464;SDS011;18089;47.428;15.006;2023-04-01T13:06:48;3.30;;;3.10;;
31464;SDS011;18089;47.428;15.006;2023-04-01T13:09:33;3.20;;;3.10;;
31464;SDS011;18089;47.428;15.006;2023-04-01T13:12:24;4.22;;;3.95;;
31464;SDS011;18089;47.428;15.006;2023-04-01T13:15:13;3.97;;;3.67;;
31464;SDS011;18089;47.428;15.006;2023-04-01T13:17:56;20.35;;;11.05;;
31464;SDS011;18089;47.428;15.006;2023-04-01T13:20:40;3.10;;;3.00;;
31464;SDS011;18089;47.428;15.006;2023-04-01T13:23:23;2.97;;;2.88;;
31464;SDS011;18089;47.428;15.006;2023-04-01T13:26:04;2.97;;;2.78;;
31464;SDS011;18089;47.428;15.006;2023-04-01T13:28:43;3.33;;;3.03;;
31464;SDS011;18089;47.428;15.006;2023-04-01T13:31:37;2.92;;;2.83;;
31464;SDS011;18089;47.428;15.006;2023-04-01T13:34:23;2.90;;;2.70;;
31464;SDS011;18089;47.428;15.006;2023-04-01T13:37:09;2.63;;;2.45;;
31464;SDS011;18089;47.428;15.006;2023-04-01T13:40:04;2.92;;;2.72;;
31464;SDS011;18089;47.428;15.006;2023-04-01T13:43:01;2.88;;;2.72;;
31464;SDS011;18089;47.428;15.006;2023-04-01T13:45:38;2.83;;;2.63;;
31464;SDS011;18089;47.428;15.006;2023-04-01T13:48:25;3.00;;;2.80;;
31464;SDS011;18089;47.428;15.006;2023-04-01T13:51:22;2.55;;;2.45;;
31464;SDS011;18089;47.428;15.006;2023-04-01T13:57:17;2.28;;;2.17;;
31464;SDS011;18089;47.428;15.006;2023-04-01T14:00:00;2.30;;;2.20;;
31464;SDS011;18089;47.428;15.006;2023-04-01T14:02:42;2.33;;;2.22;;
31464;SDS011;18089;47.428;15.006;2023-04-01T14:05:24;2.55;;;2.45;;
31464;SDS011;18089;47.428;15.006;2023-04-01T14:08:06;2.42;;;2.33;;
31464;SDS011;18089;47.428;15.006;2023-04-01T14:10:44;2.47;;;2.38;;
31464;SDS011;18089;47.428;15.006;2023-04-01T14:13:22;2.63;;;2.42;;
31464;SDS011;18089;47.428;15.006;2023-04-01T14:16:04;4.20;;;3.20;;
31464;SDS011;18089;47.428;15.006;2023-04-01T14:18:57;2.55;;;2.22;;
31464;SDS011;18089;47.428;15.006;2023-04-01T14:21:36;2.00;;;1.90;;
31464;SDS011;18089;47.428;15.006;2023-04-01T14:24:18;1.70;;;1.70;;
31464;SDS011;18089;47.428;15.006;2023-04-01T14:30:14;1.77;;;1.67;;
31464;SDS011;18089;47.428;15.006;2023-04-01T14:33:11;1.90;;;1.80;;
31464;SDS011;18089;47.428;15.006;2023-04-01T14:35:53;2.50;;;2.30;;
31464;SDS011;18089;47.428;15.006;2023-04-01T14:38:39;2.50;;;2.30;;
31464;SDS011;18089;47.428;15.006;2023-04-01T14:41:24;2.60;;;2.40;;
31464;SDS011;18089;47.428;15.006;2023-04-01T14:44:11;3.28;;;2.88;;
31464;SDS011;18089;47.428;15.006;2023-04-01T14:50:02;2.90;;;2.70;;
31464;SDS011;18089;47.428;15.006;2023-04-01T14:52:37;2.40;;;2.20;;
31464;SDS011;18089;47.428;15.006;2023-04-01T14:55:17;4.35;;;3.92;;
31464;SDS011;18089;47.428;15.006;2023-04-01T15:00:52;3.00;;;2.80;;
31464;SDS011;18089;47.428;15.006;2023-04-01T15:03:40;5.03;;;2.63;;
31464;SDS011;18089;47.428;15.006;2023-04-01T15:06:30;4.43;;;3.17;;
31464;SDS011;18089;47.428;15.006;2023-04-01T15:09:11;7.85;;;5.28;;
31464;SDS011;18089;47.428;15.006;2023-04-01T15:11:51;4.65;;;2.47;;
31464;SDS011;18089;47.428;15.006;2023-04-01T15:14:34;4.65;;;3.80;;
31464;SDS011;18089;47.428;15.006;2023-04-01T15:17:18;3.28;;;2.95;;
31464;SDS011;18089;47.428;15.006;2023-04-01T15:20:04;7.18;;;5.80;;
31464;SDS011;18089;47.428;15.006;2023-04-01T15:22:52;14.18;;;9.85;;
31464;SDS011;18089;47.428;15.006;2023-04-01T15:25:39;6.72;;;5.25;;
31464;SDS011;18089;47.428;15.006;2023-04-01T15:28:30;7.65;;;5.93;;
31464;SDS011;18089;47.428;15.006;2023-04-01T15:31:08;4.75;;;4.35;;
31464;SDS011;18089;47.428;15.006;2023-04-01T15:33:48;8.55;;;7.53;;
31464;SDS011;18089;47.428;15.006;2023-04-01T15:36:29;10.18;;;9.18;;
31464;SDS011;18089;47.428;15.006;2023-04-01T15:39:09;18.48;;;16.75;;
31464;SDS011;18089;47.428;15.006;2023-04-01T15:41:49;18.88;;;17.13;;
31464;SDS011;18089;47.428;15.006;2023-04-01T15:47:28;17.80;;;14.85;;
31464;SDS011;18089;47.428;15.006;2023-04-01T15:50:21;19.50;;;16.92;;
31464;SDS011;18089;47.428;15.006;2023-04-01T15:53:02;10.75;;;9.75;;
31464;SDS011;18089;47.428;15.006;2023-04-01T15:55:42;15.95;;;13.43;;
31464;SDS011;18089;47.428;15.006;2023-04-01T15:58:25;14.40;;;11.82;;
31464;SDS011;18089;47.428;15.006;2023-04-01T16:01:18;6.78;;;6.05;;
31464;SDS011;18089;47.428;15.006;2023-04-01T16:03:57;4.80;;;4.50;;
31464;SDS011;18089;47.428;15.006;2023-04-01T16:06:42;3.97;;;3.78;;
31464;SDS011;18089;47.428;15.006;2023-04-01T16:12:24;4.30;;;4.10;;
31464;SDS011;18089;47.428;15.006;2023-04-01T16:15:10;4.15;;;3.95;;
31464;SDS011;18089;47.428;15.006;2023-04-01T16:17:58;4.28;;;4.07;;
31464;SDS011;18089;47.428;15.006;2023-04-01T16:20:42;4.65;;;4.43;;
31464;SDS011;18089;47.428;15.006;2023-04-01T16:23:18;5.20;;;4.90;;
31464;SDS011;18089;47.428;15.006;2023-04-01T16:25:58;4.78;;;4.47;;
31464;SDS011;18089;47.428;15.006;2023-04-01T16:28:36;5.10;;;4.80;;
31464;SDS011;18089;47.428;15.006;2023-04-01T16:31:12;5.10;;;4.80;;
31464;SDS011;18089;47.428;15.006;2023-04-01T16:33:47;4.80;;;4.60;;
31464;SDS011;18089;47.428;15.006;2023-04-01T16:36:26;5.97;;;5.40;;
31464;SDS011;18089;47.428;15.006;2023-04-01T16:39:11;5.60;;;5.30;;
31464;SDS011;18089;47.428;15.006;2023-04-01T16:42:01;5.63;;;5.35;;
31464;SDS011;18089;47.428;15.006;2023-04-01T16:44:47;6.15;;;5.85;;
31464;SDS011;18089;47.428;15.006;2023-04-01T16:47:21;5.40;;;5.20;;
31464;SDS011;18089;47.428;15.006;2023-04-01T16:49:59;5.57;;;5.28;;
31464;SDS011;18089;47.428;15.006;2023-04-01T16:52:42;5.95;;;5.50;;
31464;SDS011;18089;47.428;15.006;2023-04-01T16:55:36;8.25;;;7.55;;
31464;SDS011;18089;47.428;15.006;2023-04-01T16:58:18;9.05;;;8.13;;
31464;SDS011;18089;47.428;15.006;2023-04-01T17:00:55;8.13;;;7.43;;
31464;SDS011;18089;47.428;15.006;2023-04-01T17:03:32;8.82;;;7.97;;
31464;SDS011;18089;47.428;15.006;2023-04-01T17:06:10;8.23;;;7.43;;
31464;SDS011;18089;47.428;15.006;2023-04-01T17:09:00;6.95;;;6.25;;
31464;SDS011;18089;47.428;15.006;2023-04-01T17:11:41;7.45;;;5.70;;
31464;SDS011;18089;47.428;15.006;2023-04-01T17:14:20;9.02;;;6.78;;
31464;SDS011;18089;47.428;15.006;2023-04-01T17:17:05;5.75;;;5.35;;
31464;SDS011;18089;47.428;15.006;2023-04-01T17:19:55;6.28;;;5.78;;
31464;SDS011;18089;47.428;15.006;2023-04-01T17:22:33;10.10;;;7.68;;
31464;SDS011;18089;47.428;15.006;2023-04-01T17:25:14;11.50;;;7.43;;